Time;durP1;ratioP1;P1;durP2;ratioP2;P2;SDS_P1;SDS_P2;PMS_P1;PMS_P2;Temp;Humidity;BMP_temperature;BMP_pressure;BME280_temperature;BME280_humidity;BME280_pressure;Samples;Min_cycle;Max_cycle;Signal;HPM_P1;HPM_P2
2022/05/16 00:01:51;;;;;;;12.93;3.83;;;;;;;10.11;60.46;101086.81;1763122;81;20911;-74
2022/05/16 00:04:17;;;;;;;12.45;3.80;;;;;;;10.07;60.46;101089.44;1790957;79;20961;-74
2022/05/16 00:06:43;;;;;;;9.63;3.72;;;;;;;9.99;60.45;101090.17;1761914;80;21083;-73
2022/05/16 00:09:09;;;;;;;13.95;3.90;;;;;;;9.94;60.47;101092.95;1792513;80;22186;-73
2022/05/16 00:11:35;;;;;;;13.15;5.10;;;;;;;9.86;60.51;101087.03;1761151;81;21179;-73
2022/05/16 00:14:01;;;;;;;16.05;5.12;;;;;;;9.82;60.51;101091.46;1792110;80;20902;-73
2022/05/16 00:16:27;;;;;;;9.63;3.92;;;;;;;9.75;60.56;101093.04;1792528;80;20994;-73
2022/05/16 00:18:53;;;;;;;9.30;4.22;;;;;;;9.68;60.58;101095.45;1780210;80;21517;-73
2022/05/16 00:21:20;;;;;;;14.13;4.45;;;;;;;9.61;60.66;101082.38;1759488;81;20890;-73
2022/05/16 00:23:46;;;;;;;11.35;4.30;;;;;;;9.59;60.68;101091.52;1803687;78;21127;-73
2022/05/16 00:26:12;;;;;;;12.13;5.97;;;;;;;9.58;60.75;101080.51;1759200;81;20957;-73
2022/05/16 00:28:38;;;;;;;11.70;5.58;;;;;;;9.53;60.81;101084.44;1817705;78;20964;-73
2022/05/16 00:31:04;;;;;;;8.15;4.15;;;;;;;9.50;60.88;101079.41;1825106;78;21530;-73
2022/05/16 00:33:30;;;;;;;11.97;3.62;;;;;;;9.50;60.95;101076.75;1813493;78;20994;-73
2022/05/16 00:35:56;;;;;;;11.15;4.20;;;;;;;9.54;61.00;101082.14;1810486;78;21275;-73
2022/05/16 00:38:22;;;;;;;12.53;5.37;;;;;;;9.60;61.04;101088.72;1813649;78;20868;-73
2022/05/16 00:40:48;;;;;;;15.72;3.72;;;;;;;9.60;61.08;101082.06;1824178;78;20884;-73
2022/05/16 00:43:14;;;;;;;10.40;3.55;;;;;;;9.62;61.12;101080.56;1806801;78;20935;-73
2022/05/16 00:45:40;;;;;;;10.40;3.40;;;;;;;9.61;61.16;101076.22;1779848;78;21510;-73
2022/05/16 00:48:07;;;;;;;10.78;3.12;;;;;;;9.67;61.21;101075.65;1780333;78;22134;-73
2022/05/16 00:50:39;;;;;;;8.38;3.17;;;;;;;9.67;61.23;101072.98;1788050;80;21038;-73
2022/05/16 00:53:02;;;;;;;7.80;2.80;;;;;;;9.65;61.25;101080.27;1803802;77;20975;-73
2022/05/16 00:55:31;;;;;;;8.78;3.17;;;;;;;9.62;61.28;101089.88;1802894;78;20938;-73
2022/05/16 00:58:01;;;;;;;8.18;2.85;;;;;;;9.59;61.30;101088.84;1792028;78;20998;-73
2022/05/16 01:00:31;;;;;;;12.88;3.90;;;;;;;9.56;61.32;101090.48;1760007;81;21214;-73
2022/05/16 01:05:44;;;;;;;12.90;4.42;;;;;;;9.44;61.40;101094.65;1791585;78;21015;-73
2022/05/16 01:08:14;;;;;;;18.85;6.97;;;;;;;9.36;61.44;101109.17;1792092;80;21120;-73
2022/05/16 01:10:40;;;;;;;18.15;6.65;;;;;;;9.30;61.50;101105.77;1792691;80;21045;-73
2022/05/16 01:13:06;;;;;;;15.20;5.50;;;;;;;9.23;61.54;101100.67;1792708;80;21910;-73
2022/05/16 01:15:47;;;;;;;16.42;5.60;;;;;;;9.16;61.62;101107.55;1793683;78;20979;-73
2022/05/16 01:18:15;;;;;;;9.58;3.85;;;;;;;9.10;61.68;101110.79;1761279;81;20978;-73
2022/05/16 01:21:07;;;;;;;12.98;4.53;;;;;;;9.04;61.76;101112.70;1792675;80;21478;-73
2022/05/16 01:23:41;;;;;;;11.55;4.40;;;;;;;8.96;61.84;101115.22;1770396;78;21026;-73
2022/05/16 01:26:11;;;;;;;8.50;3.15;;;;;;;8.89;61.93;101116.28;1761662;80;21123;-73
2022/05/16 01:28:37;;;;;;;12.18;3.87;;;;;;;8.84;62.02;101115.85;1792817;80;20978;-73
2022/05/16 01:31:03;;;;;;;11.05;4.08;;;;;;;8.76;62.13;101108.25;1761194;81;20906;-73
2022/05/16 01:33:29;;;;;;;12.93;3.95;;;;;;;8.73;62.28;101111.16;1798787;78;20891;-73
2022/05/16 01:35:55;;;;;;;10.78;3.47;;;;;;;8.67;62.41;101110.41;1825078;78;20971;-73
2022/05/16 01:38:23;;;;;;;14.55;3.90;;;;;;;8.64;62.57;101114.19;1824470;78;22072;-73
2022/05/16 01:40:55;;;;;;;10.25;3.92;;;;;;;8.59;62.71;101108.92;1792521;80;20971;-73
2022/05/16 01:43:24;;;;;;;14.10;4.80;;;;;;;8.52;62.86;101109.97;1792197;78;20971;-73
2022/05/16 01:45:50;;;;;;;14.65;5.17;;;;;;;8.46;63.07;101111.87;1794701;79;21065;-73
2022/05/16 01:48:16;;;;;;;14.18;4.42;;;;;;;8.41;63.23;101105.63;1764868;81;20985;-73
2022/05/16 01:50:44;;;;;;;7.70;3.17;;;;;;;8.38;63.38;101101.08;1740794;81;21479;-73
2022/05/16 01:53:10;;;;;;;9.18;3.80;;;;;;;8.32;63.51;101098.50;1796668;78;20977;-73
2022/05/16 01:55:36;;;;;;;12.03;3.60;;;;;;;8.27;63.66;101105.19;1795848;79;21053;-73
2022/05/16 01:58:03;;;;;;;10.08;3.77;;;;;;;8.22;63.76;101104.27;1796043;79;20974;-73
2022/05/16 02:00:31;;;;;;;8.35;3.55;;;;;;;8.19;63.90;101113.00;1795903;79;20970;-73
2022/05/16 02:02:59;;;;;;;9.70;3.45;;;;;;;8.15;64.03;101108.93;1803677;78;21242;-73
2022/05/16 02:05:25;;;;;;;8.45;3.17;;;;;;;8.09;64.13;101113.47;1764584;81;20977;-73
2022/05/16 02:07:51;;;;;;;16.37;4.40;;;;;;;8.03;64.27;101108.19;1795437;79;20982;-73
2022/05/16 02:10:20;;;;;;;9.23;3.75;;;;;;;7.95;64.39;101116.02;1747878;79;21481;-73
2022/05/16 02:12:46;;;;;;;12.03;3.77;;;;;;;7.87;64.53;101121.16;1796428;78;21009;-73
2022/05/16 02:15:15;;;;;;;8.18;3.40;;;;;;;7.80;64.68;101113.38;1765020;81;21190;-73
2022/05/16 02:17:41;;;;;;;8.73;3.65;;;;;;;7.75;64.83;101116.91;1796322;79;21479;-73
2022/05/16 02:20:08;;;;;;;13.38;3.42;;;;;;;7.73;64.94;101119.72;1769297;79;20835;-73
2022/05/16 02:25:18;;;;;;;7.47;3.33;;;;;;;7.69;65.20;101118.78;1796467;79;21466;-73
2022/05/16 02:27:46;;;;;;;6.83;2.80;;;;;;;7.62;65.32;101118.96;1764509;81;21109;-73
2022/05/16 02:30:13;;;;;;;11.18;2.95;;;;;;;7.54;65.46;101111.17;1763807;80;21514;-72
2022/05/16 02:32:39;;;;;;;10.72;3.35;;;;;;;7.50;65.58;101113.73;1796268;79;21537;-73
2022/05/16 02:35:06;;;;;;;7.25;3.25;;;;;;;7.48;65.70;101107.73;1764652;81;20851;-73
2022/05/16 02:37:32;;;;;;;9.10;3.67;;;;;;;7.47;65.80;101108.70;1796330;79;20994;-72
2022/05/16 02:40:00;;;;;;;10.00;3.87;;;;;;;7.46;65.87;101112.31;1765738;79;21302;-73
2022/05/16 02:42:26;;;;;;;13.18;3.90;;;;;;;7.45;66.00;101111.14;1764885;81;20977;-73
2022/05/16 02:44:52;;;;;;;10.05;3.15;;;;;;;7.41;66.09;101109.23;1783705;79;21546;-73
2022/05/16 02:47:20;;;;;;;9.38;3.22;;;;;;;7.37;66.19;101110.47;1764675;81;21050;-73
2022/05/16 02:49:46;;;;;;;12.95;3.08;;;;;;;7.34;66.29;101105.43;1793159;78;21485;-73
2022/05/16 02:52:12;;;;;;;7.53;3.27;;;;;;;7.35;66.38;101100.45;1761273;80;21189;-73
2022/05/16 02:54:38;;;;;;;9.03;3.72;;;;;;;7.32;66.49;101099.40;1792866;80;21002;-73
2022/05/16 02:57:04;;;;;;;14.55;3.87;;;;;;;7.31;66.58;101096.89;1761292;81;20897;-73
2022/05/16 02:59:32;;;;;;;9.73;3.47;;;;;;;7.30;66.65;101096.05;1793258;80;21042;-73
2022/05/16 03:02:02;;;;;;;8.30;3.50;;;;;;;7.32;66.70;101091.44;1794628;80;20984;-73
2022/05/16 03:04:29;;;;;;;17.37;4.70;;;;;;;7.32;66.77;101088.78;1795292;78;21142;-73
2022/05/16 03:06:54;;;;;;;13.08;3.33;;;;;;;7.28;66.88;101094.00;1795101;79;20853;-73
2022/05/16 03:09:22;;;;;;;9.23;3.30;;;;;;;7.25;66.97;101087.63;1795468;78;21486;-73
2022/05/16 03:11:47;;;;;;;8.90;3.20;;;;;;;7.27;67.04;101082.20;1765290;79;20999;-73
2022/05/16 03:14:13;;;;;;;9.83;3.67;;;;;;;7.30;67.12;101088.09;1792550;80;20902;-73
2022/05/16 03:16:39;;;;;;;7.58;2.92;;;;;;;7.30;67.20;101089.42;1759576;81;21979;-72
2022/05/16 03:19:06;;;;;;;15.58;3.70;;;;;;;7.28;67.28;101086.03;1799944;78;20922;-73
2022/05/16 03:21:32;;;;;;;9.85;3.00;;;;;;;7.31;67.39;101080.50;1825003;78;21018;-73
2022/05/16 03:23:58;;;;;;;10.15;3.35;;;;;;;7.34;67.44;101075.40;1824611;78;20983;-73
2022/05/16 03:26:24;;;;;;;10.70;3.83;;;;;;;7.42;67.51;101079.05;1769788;80;21574;-73
2022/05/16 03:28:51;;;;;;;9.20;2.80;;;;;;;7.49;67.58;101074.89;1766894;79;21022;-73
2022/05/16 03:31:17;;;;;;;9.70;3.27;;;;;;;7.60;67.63;101079.27;1824875;78;20874;-73
2022/05/16 03:33:43;;;;;;;8.30;3.20;;;;;;;7.69;67.66;101077.63;1796127;79;21010;-73
2022/05/16 03:36:08;;;;;;;9.33;3.45;;;;;;;7.79;67.71;101073.19;1825013;78;20934;-73
2022/05/16 03:41:18;;;;;;;10.20;3.77;;;;;;;7.86;67.72;101079.64;1792570;80;21132;-73
2022/05/16 03:43:45;;;;;;;18.85;4.47;;;;;;;7.87;67.75;101077.34;1761093;81;20989;-72
2022/05/16 03:46:11;;;;;;;14.55;4.45;;;;;;;7.93;67.80;101081.63;1761106;81;21008;-72
2022/05/16 03:48:37;;;;;;;12.20;5.22;;;;;;;8.01;67.80;101087.09;1796539;78;21494;-73
2022/05/16 03:51:05;;;;;;;20.70;5.90;;;;;;;8.12;67.84;101084.81;1796441;79;21014;-73
2022/05/16 03:53:31;;;;;;;18.85;6.10;;;;;;;8.37;67.95;101083.48;1764432;81;21320;-73
2022/05/16 03:55:56;;;;;;;31.60;8.68;;;;;;;8.81;68.02;101082.05;1797117;78;20902;-73
2022/05/16 03:58:22;;;;;;;32.20;10.25;;;;;;;9.95;68.09;101071.99;1765060;81;21517;-73
2022/05/16 04:00:48;;;;;;;21.57;7.70;;;;;;;9.95;68.09;101071.99;1796121;79;20902;-73
2022/05/16 04:03:15;;;;;;;21.10;8.58;;;;;;;10.64;67.75;101071.36;1796147;79;22157;-73
2022/05/16 04:05:41;;;;;;;27.93;9.23;;;;;;;11.41;67.65;101070.06;1769317;78;21101;-73
2022/05/16 04:08:07;;;;;;;24.05;9.80;;;;;;;12.59;67.27;101069.97;1796330;78;21041;-74
2022/05/16 04:10:34;;;;;;;26.77;14.00;;;;;;;13.74;66.69;101065.09;1764346;81;21002;-74
2022/05/16 04:13:00;;;;;;;23.35;12.68;;;;;;;14.65;65.95;101061.20;1796480;79;21026;-74
2022/05/16 04:15:29;;;;;;;23.45;11.40;;;;;;;15.26;65.21;101040.83;1765519;79;21334;-74
2022/05/16 04:17:55;;;;;;;;;;;;;;;16.16;64.37;101062.91;1766111;80;21129;-75
2022/05/16 04:20:21;;;;;;;36.75;11.55;;;;;;;16.74;63.49;101063.23;1764986;81;20245;-74
2022/05/16 04:22:47;;;;;;;20.95;8.73;;;;;;;17.43;62.54;101057.42;1796411;79;20874;-74
2022/05/16 04:25:17;;;;;;;20.82;9.55;;;;;;;18.14;61.45;101057.16;1765070;81;21074;-74
2022/05/16 04:27:43;;;;;;;22.02;9.15;;;;;;;18.43;60.45;101052.25;1796048;79;21475;-74
2022/05/16 04:30:10;;;;;;;15.08;9.40;;;;;;;18.69;59.44;101059.57;1796479;79;21125;-74
2022/05/16 04:32:36;;;;;;;18.70;10.20;;;;;;;19.02;58.46;101056.89;1796272;79;20970;-75
2022/05/16 04:35:05;;;;;;;14.53;9.53;;;;;;;19.34;57.37;101061.43;1828792;78;21019;-75
2022/05/16 04:37:34;;;;;;;18.35;9.78;;;;;;;19.41;56.12;101054.16;1795440;79;20959;-75
2022/05/16 04:40:01;;;;;;;17.20;10.23;;;;;;;19.31;54.79;101059.16;1764927;81;20976;-75
2022/05/16 04:42:43;;;;;;;15.10;9.50;;;;;;;18.87;54.17;101056.25;1763190;81;21782;-75
2022/05/16 04:45:27;;;;;;;13.20;8.65;;;;;;;18.31;54.05;101064.68;1795704;79;21009;-75
2022/05/16 04:48:00;;;;;;;17.95;8.93;;;;;;;17.94;54.02;101057.09;1796240;78;22114;-75
2022/05/16 04:50:32;;;;;;;16.87;7.47;;;;;;;18.01;53.90;101062.00;1796307;79;20998;-75
2022/05/16 04:52:58;;;;;;;18.15;7.08;;;;;;;17.97;53.67;101074.23;1824396;78;21057;-75
2022/05/16 04:55:25;;;;;;;23.32;7.90;;;;;;;17.70;53.51;101071.08;1794343;79;21455;-75
2022/05/16 04:57:50;;;;;;;17.25;6.65;;;;;;;17.74;53.22;101065.59;1796310;79;21029;-75
2022/05/16 05:00:18;;;;;;;13.13;6.72;;;;;;;17.79;52.93;101068.03;1803423;78;20953;-75
2022/05/16 05:02:44;;;;;;;24.92;7.87;;;;;;;17.94;52.64;101063.84;1784766;79;20943;-75
2022/05/16 05:05:11;;;;;;;14.07;8.15;;;;;;;17.93;52.36;101066.22;1796234;79;21044;-75
2022/05/16 05:07:37;;;;;;;16.90;7.15;;;;;;;17.85;52.08;101063.69;1828262;78;21180;-75
2022/05/16 05:15:36;;;;;;;14.70;5.17;;;;;;;18.26;51.22;101077.95;1795800;79;21052;-75
2022/05/16 05:18:01;;;;;;;11.18;3.75;;;;;;;18.33;50.95;101080.15;1796230;79;20958;-75
2022/05/16 05:20:27;;;;;;;13.38;3.55;;;;;;;18.35;50.62;101074.55;1828813;78;21744;-75
2022/05/16 05:22:53;;;;;;;9.38;3.02;;;;;;;18.40;50.25;101078.30;1807767;78;20879;-75
2022/05/16 05:25:20;;;;;;;11.15;3.22;;;;;;;18.42;49.88;101076.75;1798800;78;20986;-75
2022/05/16 05:27:48;;;;;;;16.52;3.30;;;;;;;18.46;49.65;101072.09;1805590;78;21439;-75
2022/05/16 05:30:18;;;;;;;7.92;2.77;;;;;;;18.47;49.30;101068.34;1764965;81;22203;-75
2022/05/16 05:32:45;;;;;;;6.87;2.70;;;;;;;18.33;48.91;101067.19;1800367;78;21227;-75
2022/05/16 05:35:11;;;;;;;7.55;2.60;;;;;;;18.46;48.76;101065.34;1794356;79;20882;-76
2022/05/16 05:37:37;;;;;;;7.10;2.25;;;;;;;18.98;48.50;101061.56;1759240;79;20985;-76
2022/05/16 05:40:04;;;;;;;8.63;2.60;;;;;;;19.09;48.15;101065.83;1795257;78;21008;-76
2022/05/16 05:42:31;;;;;;;7.87;2.58;;;;;;;19.24;47.77;101072.37;1796297;79;20982;-76
2022/05/16 05:44:58;;;;;;;4.80;2.00;;;;;;;19.54;47.61;101071.39;1796320;79;20986;-76
2022/05/16 05:47:24;;;;;;;4.80;2.50;;;;;;;19.80;47.27;101064.56;1800001;78;21479;-76
2022/05/16 05:49:50;;;;;;;7.40;2.50;;;;;;;19.95;46.85;101061.05;1798230;78;20973;-76
2022/05/16 05:52:16;;;;;;;6.42;2.77;;;;;;;19.62;46.32;101060.34;1764985;81;21028;-76
2022/05/16 05:54:43;;;;;;;8.23;2.75;;;;;;;19.42;46.19;101054.45;1796350;79;20977;-76
2022/05/16 05:57:09;;;;;;;9.73;2.42;;;;;;;19.59;45.93;101060.78;1790393;78;21494;-76
2022/05/16 05:59:36;;;;;;;7.78;2.08;;;;;;;19.62;45.64;101058.48;1796359;79;20982;-76
2022/05/16 06:02:02;;;;;;;8.63;2.25;;;;;;;19.56;45.47;101050.38;1828713;78;20974;-76
2022/05/16 06:04:28;;;;;;;9.83;2.65;;;;;;;19.76;45.32;101054.69;1828328;78;20990;-76
2022/05/16 06:06:54;;;;;;;10.30;2.27;;;;;;;19.95;45.10;101047.50;1820198;78;20839;-76
2022/05/16 06:09:20;;;;;;;11.53;2.72;;;;;;;20.06;44.93;101048.70;1794096;79;22081;-76
2022/05/16 06:11:48;;;;;;;6.03;2.15;;;;;;;20.13;44.68;101053.05;1821605;78;21042;-76
2022/05/16 06:14:14;;;;;;;6.10;2.60;;;;;;;19.86;44.43;101046.94;1795087;79;21108;-76
2022/05/16 06:16:40;;;;;;;5.00;2.12;;;;;;;20.07;44.30;101047.67;1796630;78;20942;-76
2022/05/16 06:19:08;;;;;;;8.05;2.33;;;;;;;20.33;44.25;101051.11;1792389;78;21022;-76
2022/05/16 06:21:35;;;;;;;7.45;2.12;;;;;;;20.34;44.00;101051.39;1796315;79;21513;-76
2022/05/16 06:24:01;;;;;;;8.35;2.20;;;;;;;20.44;43.82;101049.03;1764822;81;20996;-76
2022/05/16 06:26:28;;;;;;;5.22;2.20;;;;;;;20.69;43.58;101052.33;1798518;78;20891;-77
2022/05/16 06:28:57;;;;;;;5.67;2.58;;;;;;;20.65;43.30;101055.17;1763047;81;21052;-76
2022/05/16 06:31:23;;;;;;;7.80;2.30;;;;;;;20.74;43.36;101055.19;1796478;79;21072;-76
2022/05/16 06:33:49;;;;;;;6.97;2.08;;;;;;;20.96;43.14;101059.19;1796373;79;22093;-76
2022/05/16 06:36:16;;;;;;;6.10;2.00;;;;;;;21.17;42.92;101055.28;1796622;78;20979;-76
2022/05/16 06:38:42;;;;;;;5.17;2.00;;;;;;;20.96;42.64;101051.06;1764723;81;20996;-76
2022/05/16 06:41:10;;;;;;;5.08;1.80;;;;;;;21.09;42.59;101051.45;1796153;79;21017;-77
2022/05/16 06:43:36;;;;;;;9.05;2.10;;;;;;;21.18;42.39;101044.19;1796055;79;21033;-77
2022/05/16 06:46:02;;;;;;;5.28;2.35;;;;;;;21.19;42.26;101040.43;1798703;78;21086;-77
2022/05/16 06:48:29;;;;;;;4.75;2.00;;;;;;;21.28;42.21;101045.89;1820479;78;21641;-77
2022/05/16 06:50:55;;;;;;;8.08;1.87;;;;;;;21.40;42.12;101042.72;1821164;78;20979;-76
2022/05/16 06:53:29;;;;;;;6.70;2.20;;;;;;;21.49;41.98;101043.27;1786368;79;21074;-76
2022/05/16 06:55:56;;;;;;;5.30;2.17;;;;;;;21.60;41.77;101042.52;1786592;80;21063;-76
2022/05/16 06:58:22;;;;;;;5.42;1.80;;;;;;;21.80;41.65;101054.48;1817022;78;20999;-77
2022/05/16 07:00:50;;;;;;;14.10;1.98;;;;;;;21.93;41.43;101057.59;1807399;78;21014;-76
2022/05/16 07:03:16;;;;;;;10.32;1.90;;;;;;;21.76;41.06;101055.47;1753686;80;21554;-76
2022/05/16 07:05:42;;;;;;;7.90;2.35;;;;;;;21.57;41.00;101060.59;1788110;78;20947;-77
2022/05/16 07:08:08;;;;;;;6.47;2.85;;;;;;;21.41;40.85;101053.88;1810154;78;20990;-76
2022/05/16 07:10:34;;;;;;;5.33;2.55;;;;;;;21.32;40.68;101050.34;1785775;78;21123;-76
2022/05/16 07:13:01;;;;;;;6.95;2.00;;;;;;;21.40;40.50;101049.50;1793934;78;21029;-77
2022/05/16 07:15:27;;;;;;;9.48;2.67;;;;;;;21.40;40.30;101044.08;1786834;78;21113;-76
2022/05/16 07:17:52;;;;;;;9.83;1.98;;;;;;;21.54;40.05;101047.99;1818954;77;21414;-76
2022/05/16 07:20:19;;;;;;;5.55;1.72;;;;;;;21.83;40.01;101035.02;1782074;79;20998;-76
2022/05/16 07:22:46;;;;;;;7.42;2.17;;;;;;;21.90;39.66;101033.08;1779030;79;21156;-76
2022/05/16 07:25:16;;;;;;;9.65;1.95;;;;;;;22.02;39.62;101026.36;1782161;79;20994;-76
2022/05/16 07:27:59;;;;;;;7.45;1.75;;;;;;;22.26;39.45;101028.94;1754108;79;21050;-76
2022/05/16 07:30:34;;;;;;;6.45;2.27;;;;;;;22.43;39.14;101030.98;1784896;79;21012;-76
2022/05/16 07:33:00;;;;;;;6.62;2.15;;;;;;;22.63;38.95;101035.58;1782219;78;21037;-76
2022/05/16 07:35:30;;;;;;;6.80;2.22;;;;;;;22.69;38.71;101030.62;1824759;77;21267;-76
2022/05/16 07:37:56;;;;;;;8.50;2.33;;;;;;;22.78;38.44;101034.64;1784896;79;21039;-76
2022/05/16 07:40:29;;;;;;;8.88;2.37;;;;;;;22.54;38.09;101032.91;1779985;79;20985;-76
2022/05/16 07:42:56;;;;;;;5.25;1.37;;;;;;;22.34;37.97;101044.89;1783167;78;48041;-76
2022/05/16 07:45:22;;;;;;;3.02;1.35;;;;;;;22.39;37.95;101042.33;1780025;79;21096;-76
2022/05/16 07:47:49;;;;;;;4.37;1.75;;;;;;;22.60;37.81;101042.84;1775134;79;21290;-76
2022/05/16 07:50:15;;;;;;;4.97;2.22;;;;;;;22.55;37.65;101042.73;1778241;79;21046;-76
2022/05/16 07:52:45;;;;;;;6.35;1.60;;;;;;;22.52;37.43;101038.56;1744656;79;21113;-76
2022/05/16 07:55:09;;;;;;;4.00;1.55;;;;;;;22.40;37.38;101040.44;1773697;80;21736;-76
2022/05/16 07:57:35;;;;;;;5.20;1.80;;;;;;;22.68;37.37;101041.19;1775709;79;20896;-76
2022/05/16 08:00:02;;;;;;;7.00;1.57;;;;;;;22.86;37.16;101045.19;1769077;79;21400;-77
2022/05/16 08:02:28;;;;;;;12.23;1.50;;;;;;;22.75;36.90;101043.27;1778990;79;21042;-77
2022/05/16 08:04:54;;;;;;;7.12;3.60;;;;;;;22.76;36.88;101043.58;1804279;78;21004;-77
2022/05/16 08:07:20;;;;;;;4.58;1.70;;;;;;;22.92;36.94;101037.44;1796487;78;21161;-77
2022/05/16 08:12:33;;;;;;;12.82;2.65;;;;;;;22.61;36.67;101045.87;1801218;78;21113;-77
2022/05/16 08:15:01;;;;;;;9.10;1.90;;;;;;;22.45;36.57;101049.27;1805129;78;21049;-76
2022/05/16 08:17:29;;;;;;;3.72;1.40;;;;;;;22.31;36.36;101049.96;1785366;78;21033;-76
2022/05/16 08:19:58;;;;;;;6.40;1.90;;;;;;;22.23;36.33;101049.78;1777214;79;21032;-77
2022/05/16 08:22:31;;;;;;;6.85;1.57;;;;;;;22.58;36.25;101049.06;1805716;77;21567;-76
2022/05/16 08:24:57;;;;;;;4.92;1.62;;;;;;;22.72;36.04;101039.66;1769459;79;21494;-76
2022/05/16 08:27:25;;;;;;;6.55;2.15;;;;;;;22.88;35.89;101032.16;1791990;78;21068;-77
2022/05/16 08:29:51;;;;;;;3.83;1.42;;;;;;;23.01;35.78;101031.92;1773275;79;20996;-76
2022/05/16 08:32:19;;;;;;;5.55;1.75;;;;;;;22.83;35.63;101036.94;1769509;79;21036;-77
2022/05/16 08:34:46;;;;;;;5.12;1.70;;;;;;;22.70;35.54;101043.13;1804201;78;21023;-77
2022/05/16 08:40:03;;;;;;;4.55;1.85;;;;;;;22.92;35.57;101040.16;1789520;78;21037;-77
2022/05/16 08:42:48;;;;;;;7.53;1.45;;;;;;;23.02;35.45;101036.84;1796219;78;21030;-78
2022/05/16 08:45:35;;;;;;;6.05;1.90;;;;;;;23.14;35.42;101042.60;1766201;80;21078;-78
2022/05/16 08:48:24;;;;;;;6.20;1.98;;;;;;;22.97;35.19;101040.81;1772782;79;21016;-77
2022/05/16 08:50:54;;;;;;;11.73;5.20;;;;;;;22.79;35.14;101045.30;1780963;79;22488;-77
2022/05/16 08:53:42;;;;;;;6.22;2.20;;;;;;;22.63;35.15;101039.66;1784881;79;20901;-77
2022/05/16 08:56:10;;;;;;;12.00;4.28;;;;;;;22.90;35.22;101038.22;1754291;79;21018;-76
2022/05/16 08:59:22;;;;;;;6.37;3.05;;;;;;;22.98;35.15;101037.84;1758228;79;21011;-76
2022/05/16 09:02:07;;;;;;;8.18;2.12;;;;;;;23.12;35.13;101033.83;1698516;80;21050;-76
2022/05/16 09:04:51;;;;;;;5.17;2.05;;;;;;;23.40;35.06;101036.66;1781469;79;22200;-77
2022/05/16 09:07:28;;;;;;;6.60;3.12;;;;;;;23.52;34.86;101024.95;1810225;77;21019;-77
2022/05/16 09:10:08;;;;;;;6.90;1.92;;;;;;;23.15;34.65;101021.10;1807302;77;21045;-77
2022/05/16 09:13:10;;;;;;;4.08;1.40;;;;;;;23.03;34.78;101017.57;1780377;79;21037;-76
2022/05/16 09:15:51;;;;;;;6.25;2.25;;;;;;;23.21;34.72;101020.17;1800754;78;21311;-75
2022/05/16 09:18:32;;;;;;;6.75;1.95;;;;;;;22.85;34.61;101017.67;1804108;78;21334;-76
2022/05/16 09:21:16;;;;;;;7.20;1.70;;;;;;;22.85;34.68;101017.67;1786394;78;21002;-76
2022/05/16 09:24:07;;;;;;;5.30;1.92;;;;;;;23.15;34.89;101022.46;1815114;77;21029;-77
2022/05/16 09:27:09;;;;;;;3.65;1.72;;;;;;;23.43;34.91;101020.95;1783241;78;21034;-77
2022/05/16 09:29:46;;;;;;;4.45;1.47;;;;;;;23.50;34.74;101023.02;1756240;79;21031;-77
2022/05/16 09:32:16;;;;;;;5.42;1.80;;;;;;;23.36;34.51;101021.86;1782300;79;21371;-77
2022/05/16 09:34:42;;;;;;;4.72;1.60;;;;;;;23.04;34.42;101018.41;1777687;78;21492;-77
2022/05/16 09:37:09;;;;;;;5.08;2.25;;;;;;;23.15;34.50;101017.02;1782927;79;21796;-78
2022/05/16 09:39:36;;;;;;;7.08;1.72;;;;;;;23.28;34.32;101015.97;1789835;79;21012;-77
2022/05/16 09:42:25;;;;;;;5.53;1.70;;;;;;;23.39;34.21;101006.96;1781415;79;20927;-77
2022/05/16 09:45:01;;;;;;;6.10;2.37;;;;;;;23.67;34.11;101011.67;1782219;79;21713;-77
2022/05/16 09:47:35;;;;;;;4.03;1.85;;;;;;;23.74;33.94;101004.19;1809797;77;21410;-77
2022/05/16 09:50:24;;;;;;;8.55;1.95;;;;;;;23.67;33.70;101003.50;1780922;79;21675;-77
2022/05/16 09:53:02;;;;;;;8.78;1.98;;;;;;;23.67;33.68;100999.41;1782067;79;21055;-77
2022/05/16 09:55:36;;;;;;;17.52;2.00;;;;;;;23.72;33.65;100993.52;1783207;79;21732;-77
2022/05/16 09:58:22;;;;;;;6.37;1.90;;;;;;;23.72;33.65;100999.50;1787144;79;22339;-78
2022/05/16 10:01:00;;;;;;;5.62;2.30;;;;;;;23.62;33.62;101004.21;1796183;78;21053;-77
2022/05/16 10:03:44;;;;;;;4.28;1.82;;;;;;;23.51;33.58;101016.48;1790171;78;21509;-77
2022/05/16 10:06:32;;;;;;;4.03;1.82;;;;;;;23.40;33.45;101018.12;1784924;79;21019;-77
2022/05/16 10:09:05;;;;;;;7.17;1.98;;;;;;;23.11;33.37;101022.67;1779077;79;21101;-77
2022/05/16 10:11:31;;;;;;;7.95;1.75;;;;;;;23.02;33.49;101022.70;1782864;79;22831;-77
2022/05/16 10:13:57;;;;;;;8.23;1.75;;;;;;;23.24;33.48;101014.25;1781173;79;21569;-77
2022/05/16 10:16:27;;;;;;;5.35;1.77;;;;;;;23.30;33.47;101013.81;1767963;78;21037;-77
2022/05/16 10:19:10;;;;;;;4.72;2.45;;;;;;;23.33;33.59;101017.42;1743156;79;21624;-76
2022/05/16 10:21:41;;;;;;;5.55;2.10;;;;;;;23.50;33.57;101016.20;1765825;77;21001;-76
2022/05/16 10:24:10;;;;;;;3.72;1.85;;;;;;;23.42;33.35;101014.67;1776886;77;21479;-76
2022/05/16 10:26:41;;;;;;;3.05;1.70;;;;;;;22.82;32.96;101019.52;1750630;79;21014;-76
2022/05/16 10:29:12;;;;;;;4.45;1.60;;;;;;;22.73;33.25;101007.34;1749888;77;21072;-76
2022/05/16 10:34:32;;;;;;;4.75;1.60;;;;;;;22.91;33.16;100997.69;1772944;78;20962;-77
2022/05/16 10:36:58;;;;;;;5.45;1.70;;;;;;;23.01;33.18;100996.55;1788094;79;21401;-76
2022/05/16 10:39:26;;;;;;;2.05;1.42;;;;;;;23.04;33.12;100991.20;1790385;78;20933;-76
2022/05/16 10:42:24;;;;;;;5.80;1.65;;;;;;;23.26;33.08;100990.86;1792932;78;21438;-77
2022/05/16 10:45:01;;;;;;;4.10;1.60;;;;;;;23.32;32.98;100982.59;1807776;78;21085;-77
2022/05/16 10:47:35;;;;;;;5.80;1.72;;;;;;;23.31;32.91;100982.82;1804639;78;21052;-76
2022/05/16 10:50:15;;;;;;;5.83;1.42;;;;;;;23.30;32.84;100979.27;1794913;78;21499;-77
2022/05/16 10:52:50;;;;;;;;;;;;;;;23.21;32.59;100979.34;1797811;78;21491;-77
2022/05/16 10:55:16;;;;;;;3.92;1.77;;;;;;;23.00;32.40;100970.44;1784262;78;20183;-76
2022/05/16 10:58:12;;;;;;;6.28;1.25;;;;;;;22.90;32.52;100970.20;1762071;80;21406;-76
2022/05/16 11:00:52;;;;;;;5.33;1.85;;;;;;;23.13;32.51;100966.63;1791671;80;20986;-76
2022/05/16 11:03:46;;;;;;;5.17;2.02;;;;;;;23.07;32.30;100967.06;1797621;78;21790;-76
2022/05/16 11:06:50;;;;;;;7.40;1.42;;;;;;;22.92;32.29;100965.34;1795000;78;21078;-76
2022/05/16 11:10:03;;;;;;;4.78;1.60;;;;;;;23.12;32.28;100973.95;1791239;80;21045;-76
2022/05/16 11:13:02;;;;;;;6.45;1.70;;;;;;;23.19;32.16;100966.50;1794035;78;21029;-76
2022/05/16 11:15:35;;;;;;;;;;;;;;;23.37;32.15;100969.07;1780375;79;21086;-76
2022/05/16 11:18:21;;;;;;;4.95;1.37;;;;;;;23.20;32.06;100968.16;1771932;79;20801;-77
2022/05/16 11:21:08;;;;;;;4.45;1.70;;;;;;;23.30;32.12;100964.30;1791223;80;21009;-77
2022/05/16 11:23:56;;;;;;;5.08;1.77;;;;;;;23.37;32.06;100955.98;1804860;78;20955;-77
2022/05/16 11:26:37;;;;;;;5.15;1.50;;;;;;;23.41;32.07;100957.20;1806204;78;21062;-76
2022/05/16 11:29:20;;;;;;;13.03;2.08;;;;;;;23.29;31.87;100951.74;1769293;80;21028;-76
2022/05/16 11:32:01;;;;;;;5.33;1.77;;;;;;;23.12;31.80;100941.30;1793121;78;21160;-76
2022/05/16 11:34:40;;;;;;;8.73;1.77;;;;;;;23.04;31.70;100940.33;1787118;78;21621;-76
2022/05/16 11:37:32;;;;;;;3.40;1.52;;;;;;;22.86;31.71;100936.38;1760471;81;21076;-76
2022/05/16 11:40:46;;;;;;;5.15;1.72;;;;;;;22.87;31.63;100941.56;1760414;80;21049;-76
2022/05/16 11:43:32;;;;;;;4.65;1.85;;;;;;;22.85;31.65;100939.63;1799942;78;21061;-76
2022/05/16 11:46:22;;;;;;;4.95;1.55;;;;;;;22.80;31.67;100944.94;1743032;79;21275;-76
2022/05/16 11:49:26;;;;;;;4.58;1.47;;;;;;;22.86;31.72;100939.09;1791558;78;21526;-76
2022/05/16 11:52:46;;;;;;;5.08;1.72;;;;;;;23.02;31.80;100938.36;1791305;80;21536;-76
2022/05/16 12:01:29;;;;;;;4.33;1.85;;;;;;;22.82;31.37;100920.23;1780717;78;21087;-76
2022/05/16 12:04:14;;;;;;;7.25;2.42;;;;;;;22.58;31.41;100922.63;1781592;78;21025;-76
2022/05/16 12:06:49;;;;;;;7.22;1.70;;;;;;;22.62;31.46;100926.53;1801991;78;21018;-76
2022/05/16 12:09:26;;;;;;;6.60;1.72;;;;;;;22.60;31.52;100915.88;1819505;78;20960;-76
2022/05/16 12:12:06;;;;;;;9.53;1.80;;;;;;;22.71;31.61;100911.54;1819133;77;21436;-76
2022/05/16 12:14:34;;;;;;;6.08;1.85;;;;;;;22.66;31.64;100907.33;1764554;80;21158;-76